Time;durP1;ratioP1;P1;durP2;ratioP2;P2;SDS_P1;SDS_P2;PMS_P1;PMS_P2;Temp;Humidity;BMP_temperature;BMP_pressure;BME280_temperature;BME280_humidity;BME280_pressure;Samples;Min_cycle;Max_cycle;Signal;HPM_P1;HPM_P2
2024/04/08 00:01:36;;;;;;;20.63;19.53;;;;;;;;;;5070204;28;20523;-69
2024/04/08 00:04:04;;;;;;;19.57;18.57;;;;;;;;;;5067647;28;21205;-68
2024/04/08 00:06:30;;;;;;;19.83;18.83;;;;;;;;;;5071201;28;20463;-70
2024/04/08 00:08:57;;;;;;;20.20;19.20;;;;;;;;;;5071252;28;20455;-69
2024/04/08 00:11:23;;;;;;;20.00;19.00;;;;;;;;;;5070054;28;20489;-69
2024/04/08 00:13:50;;;;;;;19.63;18.63;;;;;;;;;;5069083;28;20484;-68
2024/04/08 00:16:18;;;;;;;19.40;18.50;;;;;;;;;;5069280;28;21123;-69
2024/04/08 00:18:45;;;;;;;20.13;19.13;;;;;;;;;;5069641;28;20693;-68
2024/04/08 00:21:11;;;;;;;20.07;19.07;;;;;;;;;;5069017;28;20480;-69
2024/04/08 00:23:38;;;;;;;19.67;18.67;;;;;;;;;;5068883;28;20465;-68
2024/04/08 00:26:05;;;;;;;19.90;18.90;;;;;;;;;;5071504;28;20474;-68
2024/04/08 00:28:33;;;;;;;19.73;18.73;;;;;;;;;;5070160;28;20505;-69
2024/04/08 00:31:02;;;;;;;18.97;18.07;;;;;;;;;;5069919;28;20474;-69
2024/04/08 00:33:32;;;;;;;19.10;18.10;;;;;;;;;;5070782;28;20985;-69
2024/04/08 00:35:58;;;;;;;19.03;18.03;;;;;;;;;;5068717;28;20454;-69
2024/04/08 00:38:26;;;;;;;19.53;18.53;;;;;;;;;;5068450;28;20450;-70
2024/04/08 00:40:52;;;;;;;19.77;18.77;;;;;;;;;;5069861;28;20473;-69
2024/04/08 00:43:19;;;;;;;19.00;18.10;;;;;;;;;;5070231;28;21428;-68
2024/04/08 00:45:47;;;;;;;19.57;18.60;;;;;;;;;;5070099;28;20782;-68
2024/04/08 00:48:15;;;;;;;19.10;18.20;;;;;;;;;;5070447;28;20555;-68
2024/04/08 00:50:44;;;;;;;19.73;18.73;;;;;;;;;;5068915;28;20769;-69
2024/04/08 00:53:13;;;;;;;19.97;18.97;;;;;;;;;;5069428;28;20489;-69
2024/04/08 00:55:40;;;;;;;19.97;18.97;;;;;;;;;;5085613;28;20462;-69
2024/04/08 00:58:08;;;;;;;19.77;18.77;;;;;;;;;;5099740;28;20461;-69
2024/04/08 01:00:34;;;;;;;19.87;18.87;;;;;;;;;;5102040;27;20469;-69
2024/04/08 01:03:03;;;;;;;20.73;19.63;;;;;;;;;;5108769;28;20552;-68
2024/04/08 01:05:29;;;;;;;19.93;18.93;;;;;;;;;;5100487;28;20474;-69
2024/04/08 01:07:57;;;;;;;20.03;19.03;;;;;;;;;;5102564;28;20902;-68
2024/04/08 01:10:24;;;;;;;19.67;18.67;;;;;;;;;;5099113;28;21016;-68
2024/04/08 01:12:51;;;;;;;20.77;19.67;;;;;;;;;;5105552;28;20499;-68
2024/04/08 01:15:17;;;;;;;20.20;19.20;;;;;;;;;;5103178;28;20492;-67
2024/04/08 01:17:47;;;;;;;20.23;19.23;;;;;;;;;;5101004;28;20501;-68
2024/04/08 01:20:13;;;;;;;20.00;19.00;;;;;;;;;;5099052;28;20476;-68
2024/04/08 01:22:40;;;;;;;19.83;18.83;;;;;;;;;;5108782;28;20480;-68
2024/04/08 01:25:08;;;;;;;19.40;18.40;;;;;;;;;;5096855;28;20462;-68
2024/04/08 01:27:35;;;;;;;20.73;19.63;;;;;;;;;;5097878;28;20488;-69
2024/04/08 01:30:02;;;;;;;20.23;19.13;;;;;;;;;;5106228;28;20545;-68
2024/04/08 01:32:29;;;;;;;20.50;19.40;;;;;;;;;;5101583;28;20496;-68
2024/04/08 01:34:55;;;;;;;20.30;19.20;;;;;;;;;;5104025;28;20497;-68
2024/04/08 01:37:22;;;;;;;20.13;19.03;;;;;;;;;;5101588;28;20461;-68
2024/04/08 01:39:48;;;;;;;20.57;19.47;;;;;;;;;;5108920;28;20756;-68
2024/04/08 01:42:17;;;;;;;19.90;18.90;;;;;;;;;;5104366;28;20465;-67
2024/04/08 01:44:43;;;;;;;20.10;19.00;;;;;;;;;;5102320;28;20466;-69
2024/04/08 01:47:10;;;;;;;20.70;19.60;;;;;;;;;;5101018;28;20891;-69
2024/04/08 01:49:36;;;;;;;19.93;18.93;;;;;;;;;;5107453;28;20458;-68
2024/04/08 01:52:04;;;;;;;19.80;18.80;;;;;;;;;;5102538;28;20484;-68
2024/04/08 01:54:31;;;;;;;20.80;19.80;;;;;;;;;;5101827;28;20467;-68
2024/04/08 01:56:58;;;;;;;20.30;19.30;;;;;;;;;;5107253;28;20958;-69
2024/04/08 01:59:26;;;;;;;19.80;18.80;;;;;;;;;;5096398;28;20462;-68
2024/04/08 02:01:54;;;;;;;20.27;19.23;;;;;;;;;;5104401;28;20461;-70
2024/04/08 02:04:20;;;;;;;19.63;18.63;;;;;;;;;;5098761;28;20854;-68
2024/04/08 02:06:48;;;;;;;19.50;18.50;;;;;;;;;;5098804;28;20465;-69
2024/04/08 02:09:14;;;;;;;20.27;19.27;;;;;;;;;;5101075;28;20468;-69
2024/04/08 02:11:41;;;;;;;19.87;18.87;;;;;;;;;;5102020;28;20478;-69
2024/04/08 02:14:07;;;;;;;20.37;19.27;;;;;;;;;;5104222;28;20502;-69
2024/04/08 02:16:35;;;;;;;19.50;18.50;;;;;;;;;;5102588;28;20900;-69
2024/04/08 02:20:25;;;;;;;19.73;18.73;;;;;;;;;;5452207;25;20617;-68
2024/04/08 02:22:51;;;;;;;19.70;18.70;;;;;;;;;;5452323;26;20579;-68
2024/04/08 02:25:20;;;;;;;20.07;19.07;;;;;;;;;;5444619;26;20534;-68
2024/04/08 02:27:46;;;;;;;20.33;19.33;;;;;;;;;;5465092;26;20897;-68
2024/04/08 02:30:15;;;;;;;19.93;18.93;;;;;;;;;;5452618;26;21004;-68
2024/04/08 02:32:42;;;;;;;20.00;19.00;;;;;;;;;;5457431;26;20581;-68
2024/04/08 02:35:11;;;;;;;20.17;19.17;;;;;;;;;;5440786;26;20516;-68
2024/04/08 02:37:40;;;;;;;19.87;18.87;;;;;;;;;;5446428;26;20932;-69
2024/04/08 02:40:10;;;;;;;20.40;19.30;;;;;;;;;;5454875;26;20608;-68
2024/04/08 02:42:37;;;;;;;19.87;18.87;;;;;;;;;;5447549;26;20582;-69
2024/04/08 02:45:07;;;;;;;19.40;18.43;;;;;;;;;;5443938;26;20600;-68
2024/04/08 02:47:33;;;;;;;20.70;19.70;;;;;;;;;;5454144;26;20490;-68
2024/04/08 02:50:03;;;;;;;19.90;18.90;;;;;;;;;;5476754;26;20477;-69
2024/04/08 02:52:30;;;;;;;20.57;19.57;;;;;;;;;;5446717;26;20456;-70
2024/04/08 02:55:01;;;;;;;19.83;18.83;;;;;;;;;;5463920;26;20525;-68
2024/04/08 02:57:28;;;;;;;19.83;18.83;;;;;;;;;;5455231;26;20615;-69
2024/04/08 02:59:57;;;;;;;19.70;18.70;;;;;;;;;;5449666;26;20523;-69
2024/04/08 03:02:23;;;;;;;20.00;19.00;;;;;;;;;;5461570;26;21057;-68
2024/04/08 03:04:54;;;;;;;19.67;18.67;;;;;;;;;;5453256;26;20546;-69
2024/04/08 03:07:20;;;;;;;19.40;18.40;;;;;;;;;;5454050;26;20474;-69
2024/04/08 03:09:51;;;;;;;20.23;19.23;;;;;;;;;;5450465;26;21144;-69
2024/04/08 03:12:20;;;;;;;19.67;18.67;;;;;;;;;;5443239;26;20490;-70
2024/04/08 03:14:49;;;;;;;18.77;17.87;;;;;;;;;;5420880;26;21381;-68
2024/04/08 03:17:15;;;;;;;21.10;20.07;;;;;;;;;;5427264;26;20646;-69
2024/04/08 03:19:44;;;;;;;20.43;19.43;;;;;;;;;;5417226;26;21068;-68
2024/04/08 03:22:10;;;;;;;19.70;18.70;;;;;;;;;;5427956;26;20486;-69
2024/04/08 03:24:39;;;;;;;19.20;18.20;;;;;;;;;;5426847;26;20526;-68
2024/04/08 03:27:05;;;;;;;19.77;18.77;;;;;;;;;;5420055;26;20530;-68
2024/04/08 03:29:37;;;;;;;19.97;18.97;;;;;;;;;;5400546;26;20513;-68
2024/04/08 03:32:04;;;;;;;19.73;18.73;;;;;;;;;;5397976;26;20565;-68
2024/04/08 03:34:35;;;;;;;21.03;20.03;;;;;;;;;;5411002;26;20885;-68
2024/04/08 03:37:06;;;;;;;20.87;19.87;;;;;;;;;;5393613;26;20557;-69
2024/04/08 03:39:35;;;;;;;19.97;18.97;;;;;;;;;;5397019;26;21037;-68
2024/04/08 03:42:04;;;;;;;20.00;19.00;;;;;;;;;;5391388;26;20534;-69
2024/04/08 03:44:33;;;;;;;20.90;19.87;;;;;;;;;;5402011;26;20625;-69
2024/04/08 03:47:05;;;;;;;19.50;18.50;;;;;;;;;;5390928;26;20496;-69
2024/04/08 03:52:15;;;;;;;20.13;19.13;;;;;;;;;;5403334;26;20481;-69
2024/04/08 03:54:41;;;;;;;19.37;18.40;;;;;;;;;;5402360;26;20485;-69
2024/04/08 03:57:11;;;;;;;20.50;19.50;;;;;;;;;;5411398;26;20476;-68
2024/04/08 03:59:37;;;;;;;20.47;19.47;;;;;;;;;;5403769;26;20819;-69
2024/04/08 04:02:08;;;;;;;19.77;18.87;;;;;;;;;;5403811;26;20476;-69
2024/04/08 04:04:35;;;;;;;20.73;19.70;;;;;;;;;;5392107;26;20481;-68
2024/04/08 04:07:04;;;;;;;20.87;19.87;;;;;;;;;;5399372;26;20464;-69
2024/04/08 04:09:30;;;;;;;19.80;18.80;;;;;;;;;;5394254;26;20478;-69
2024/04/08 04:11:59;;;;;;;20.37;19.37;;;;;;;;;;5403825;26;20486;-69
2024/04/08 04:14:25;;;;;;;20.10;19.10;;;;;;;;;;5401897;26;21181;-69
2024/04/08 04:16:54;;;;;;;19.87;18.97;;;;;;;;;;5401617;26;20516;-70
2024/04/08 04:19:23;;;;;;;20.40;19.47;;;;;;;;;;5398266;26;21056;-68
2024/04/08 04:21:52;;;;;;;21.00;20.00;;;;;;;;;;5389209;26;20485;-68
2024/04/08 04:24:18;;;;;;;21.60;20.57;;;;;;;;;;5400995;26;20940;-70
2024/04/08 04:26:47;;;;;;;20.07;19.17;;;;;;;;;;5406110;26;20466;-70
2024/04/08 04:29:13;;;;;;;21.67;20.67;;;;;;;;;;5396533;26;20525;-68
2024/04/08 04:31:47;;;;;;;22.10;21.10;;;;;;;;;;5406624;26;20476;-69
2024/04/08 04:34:14;;;;;;;22.30;21.30;;;;;;;;;;5400835;26;20632;-68
2024/04/08 04:36:47;;;;;;;21.77;20.67;;;;;;;;;;5396915;26;20906;-68
2024/04/08 04:39:13;;;;;;;22.40;21.30;;;;;;;;;;5394673;26;20673;-68
2024/04/08 04:41:42;;;;;;;21.03;20.03;;;;;;;;;;5409627;26;20871;-70
2024/04/08 04:44:09;;;;;;;21.97;20.87;;;;;;;;;;5395231;26;20493;-69
2024/04/08 04:46:38;;;;;;;21.00;20.00;;;;;;;;;;5401355;26;20937;-68
2024/04/08 04:49:04;;;;;;;21.47;20.37;;;;;;;;;;5393084;26;20587;-68
2024/04/08 04:51:33;;;;;;;21.73;20.73;;;;;;;;;;5406135;26;20524;-69
2024/04/08 04:54:04;;;;;;;22.10;21.00;;;;;;;;;;5401234;26;21569;-70
2024/04/08 04:56:31;;;;;;;21.57;20.47;;;;;;;;;;5400109;26;21134;-69
2024/04/08 04:59:01;;;;;;;22.20;21.10;;;;;;;;;;5411378;26;20590;-70
2024/04/08 05:01:27;;;;;;;21.13;20.13;;;;;;;;;;5399021;26;21113;-68
2024/04/08 05:03:56;;;;;;;21.70;20.60;;;;;;;;;;5404655;26;20872;-68
2024/04/08 05:06:24;;;;;;;21.73;20.63;;;;;;;;;;5404107;26;20839;-69
2024/04/08 05:08:53;;;;;;;22.03;20.93;;;;;;;;;;5399905;26;20535;-68
2024/04/08 05:11:22;;;;;;;21.97;20.87;;;;;;;;;;5408184;26;20466;-68
2024/04/08 05:13:51;;;;;;;21.60;20.50;;;;;;;;;;5399860;26;21351;-68
2024/04/08 05:16:18;;;;;;;20.93;19.83;;;;;;;;;;5394714;26;20571;-69
2024/04/08 05:18:47;;;;;;;20.97;19.87;;;;;;;;;;5397447;26;20477;-69
2024/04/08 05:21:14;;;;;;;20.40;19.40;;;;;;;;;;5391299;26;20596;-70
2024/04/08 05:23:44;;;;;;;20.73;19.73;;;;;;;;;;5401710;26;20480;-69
2024/04/08 05:26:10;;;;;;;20.83;19.73;;;;;;;;;;5407732;26;20915;-69
2024/04/08 05:28:42;;;;;;;20.33;19.33;;;;;;;;;;5397146;26;20486;-69
2024/04/08 05:31:08;;;;;;;20.07;19.07;;;;;;;;;;5409746;26;20603;-69
2024/04/08 05:33:37;;;;;;;19.67;18.77;;;;;;;;;;5399448;26;20832;-69
2024/04/08 05:36:04;;;;;;;19.63;18.73;;;;;;;;;;5400522;26;20579;-69
2024/04/08 05:38:34;;;;;;;20.37;19.37;;;;;;;;;;5403927;26;20519;-69
2024/04/08 05:41:01;;;;;;;20.50;19.60;;;;;;;;;;5412054;26;20956;-69
2024/04/08 05:43:31;;;;;;;20.60;19.60;;;;;;;;;;5407935;26;20596;-69
2024/04/08 05:46:00;;;;;;;20.57;19.57;;;;;;;;;;5399437;26;20905;-70
2024/04/08 05:48:29;;;;;;;19.77;18.87;;;;;;;;;;5400251;26;20531;-69
2024/04/08 05:50:56;;;;;;;19.93;19.03;;;;;;;;;;5397996;26;20514;-69
2024/04/08 05:53:25;;;;;;;19.73;18.83;;;;;;;;;;5394469;26;20485;-69
2024/04/08 05:55:53;;;;;;;20.20;19.30;;;;;;;;;;5395606;26;20593;-68
2024/04/08 05:58:22;;;;;;;21.20;20.20;;;;;;;;;;5388960;26;20472;-68
2024/04/08 06:00:49;;;;;;;21.30;20.30;;;;;;;;;;5400402;26;20537;-69
2024/04/08 06:03:22;;;;;;;20.30;19.30;;;;;;;;;;5396534;26;20530;-69
2024/04/08 06:05:48;;;;;;;20.13;19.13;;;;;;;;;;5407309;26;20481;-69
2024/04/08 06:08:17;;;;;;;20.43;19.43;;;;;;;;;;5397079;26;20543;-69
2024/04/08 06:10:50;;;;;;;19.80;18.80;;;;;;;;;;5393726;26;20482;-68
2024/04/08 06:13:19;;;;;;;20.20;19.20;;;;;;;;;;5396726;26;20536;-69
2024/04/08 06:15:45;;;;;;;20.87;19.77;;;;;;;;;;5405433;26;20872;-69
2024/04/08 06:18:15;;;;;;;20.47;19.47;;;;;;;;;;5408582;26;20489;-68
2024/04/08 06:20:44;;;;;;;19.30;18.30;;;;;;;;;;5384125;26;20483;-68
2024/04/08 06:23:13;;;;;;;20.33;19.23;;;;;;;;;;5403106;26;20959;-68
2024/04/08 06:25:40;;;;;;;19.37;18.37;;;;;;;;;;5397651;26;21047;-68
2024/04/08 06:28:09;;;;;;;19.37;18.27;;;;;;;;;;5407127;26;20537;-67
2024/04/08 06:30:35;;;;;;;19.93;18.73;;;;;;;;;;5399950;26;20499;-68
2024/04/08 06:33:04;;;;;;;19.40;18.30;;;;;;;;;;5404730;26;20915;-68
2024/04/08 06:35:31;;;;;;;19.73;18.53;;;;;;;;;;5399462;26;20846;-68
2024/04/08 06:38:02;;;;;;;20.17;18.97;;;;;;;;;;5410330;26;20476;-68
2024/04/08 06:40:29;;;;;;;20.40;19.10;;;;;;;;;;5406203;26;20482;-69
2024/04/08 06:42:59;;;;;;;19.33;18.13;;;;;;;;;;5407204;26;20547;-68
2024/04/08 06:45:25;;;;;;;19.63;18.43;;;;;;;;;;5402682;26;20485;-68
2024/04/08 06:47:55;;;;;;;18.90;17.80;;;;;;;;;;5402953;26;20471;-68
2024/04/08 06:50:21;;;;;;;18.60;17.50;;;;;;;;;;5393214;26;20591;-68
2024/04/08 06:52:50;;;;;;;18.40;17.40;;;;;;;;;;5395470;26;20509;-68
2024/04/08 06:55:19;;;;;;;18.87;17.77;;;;;;;;;;5405929;26;20599;-68
2024/04/08 06:57:49;;;;;;;18.83;17.73;;;;;;;;;;5376304;26;20884;-69
2024/04/08 07:00:17;;;;;;;18.90;17.80;;;;;;;;;;5374335;26;20487;-68
2024/04/08 07:02:46;;;;;;;18.90;17.80;;;;;;;;;;5387758;26;20479;-68
2024/04/08 07:05:12;;;;;;;18.93;17.83;;;;;;;;;;5377711;26;20502;-68
2024/04/08 07:07:41;;;;;;;18.50;17.40;;;;;;;;;;5391446;26;20987;-69
2024/04/08 07:10:07;;;;;;;18.33;17.23;;;;;;;;;;5389409;26;20614;-70
2024/04/08 07:12:39;;;;;;;18.90;17.80;;;;;;;;;;5391021;26;21033;-68
2024/04/08 07:15:06;;;;;;;18.30;17.30;;;;;;;;;;5391752;26;20957;-69
2024/04/08 07:17:35;;;;;;;18.90;17.80;;;;;;;;;;5386900;26;20478;-68
2024/04/08 07:20:02;;;;;;;18.53;17.50;;;;;;;;;;5389210;26;20573;-69
2024/04/08 07:22:31;;;;;;;18.00;17.00;;;;;;;;;;5383378;26;21145;-68
2024/04/08 07:24:58;;;;;;;18.33;17.33;;;;;;;;;;5392705;26;20542;-68
2024/04/08 07:27:27;;;;;;;17.60;16.70;;;;;;;;;;5394800;26;20526;-68
2024/04/08 07:29:57;;;;;;;18.20;17.20;;;;;;;;;;5388631;26;20521;-69
2024/04/08 07:32:26;;;;;;;17.93;16.93;;;;;;;;;;5391116;26;20615;-69
2024/04/08 07:34:53;;;;;;;18.30;17.30;;;;;;;;;;5393805;26;20481;-69
2024/04/08 07:37:22;;;;;;;18.20;17.20;;;;;;;;;;5382004;26;20476;-68
2024/04/08 07:39:51;;;;;;;17.87;16.97;;;;;;;;;;5391416;26;20475;-68
2024/04/08 07:42:18;;;;;;;18.50;17.50;;;;;;;;;;5388679;26;20545;-69
2024/04/08 07:44:48;;;;;;;18.20;17.20;;;;;;;;;;5386944;26;20860;-69
2024/04/08 07:47:18;;;;;;;17.97;17.07;;;;;;;;;;5385973;26;20585;-68
2024/04/08 07:49:52;;;;;;;17.80;16.90;;;;;;;;;;5393102;26;20482;-68
2024/04/08 07:52:19;;;;;;;17.73;16.83;;;;;;;;;;5386889;26;20538;-69
2024/04/08 07:54:48;;;;;;;17.67;16.77;;;;;;;;;;5389733;26;20877;-69
2024/04/08 07:57:14;;;;;;;17.90;17.00;;;;;;;;;;5392021;26;21025;-68
2024/04/08 07:59:43;;;;;;;17.40;16.60;;;;;;;;;;5388437;26;21022;-69
2024/04/08 08:02:10;;;;;;;17.57;16.77;;;;;;;;;;5388090;26;20552;-68
2024/04/08 08:04:41;;;;;;;17.60;16.80;;;;;;;;;;5390152;26;20478;-68
2024/04/08 08:07:07;;;;;;;17.67;16.87;;;;;;;;;;5386346;26;20497;-68
2024/04/08 08:09:36;;;;;;;17.00;16.30;;;;;;;;;;5393152;26;20577;-68
2024/04/08 08:12:06;;;;;;;16.80;16.10;;;;;;;;;;5384798;26;20483;-68
2024/04/08 08:14:35;;;;;;;16.60;15.90;;;;;;;;;;5394136;26;21120;-69
2024/04/08 08:17:04;;;;;;;17.07;16.37;;;;;;;;;;5392566;26;20547;-69
2024/04/08 08:19:32;;;;;;;16.07;15.47;;;;;;;;;;5388147;26;20498;-68
2024/04/08 08:22:04;;;;;;;16.53;15.83;;;;;;;;;;5392180;26;20531;-70
2024/04/08 08:24:35;;;;;;;15.73;15.13;;;;;;;;;;5386812;26;20581;-68
2024/04/08 08:27:04;;;;;;;15.73;15.13;;;;;;;;;;5387988;26;20484;-68
2024/04/08 08:29:33;;;;;;;15.43;14.83;;;;;;;;;;5390060;26;20491;-69
2024/04/08 08:32:02;;;;;;;14.93;14.43;;;;;;;;;;5390349;26;20486;-70
2024/04/08 08:34:28;;;;;;;15.00;14.50;;;;;;;;;;5385774;26;20475;-69
2024/04/08 08:36:57;;;;;;;15.30;14.70;;;;;;;;;;5387224;26;20479;-68
2024/04/08 08:39:26;;;;;;;15.10;14.60;;;;;;;;;;5388837;26;20471;-69
2024/04/08 08:41:57;;;;;;;15.30;14.70;;;;;;;;;;5382488;26;20496;-70
2024/04/08 08:44:24;;;;;;;15.40;14.80;;;;;;;;;;5387466;26;20867;-69
2024/04/08 08:46:54;;;;;;;14.70;14.20;;;;;;;;;;5392761;26;20468;-68
2024/04/08 08:49:21;;;;;;;14.87;14.37;;;;;;;;;;5390289;26;20497;-70
2024/04/08 08:51:50;;;;;;;15.00;14.50;;;;;;;;;;5384379;26;20484;-69
2024/04/08 08:54:17;;;;;;;15.20;14.70;;;;;;;;;;5391412;26;20488;-71
2024/04/08 08:56:48;;;;;;;14.90;14.40;;;;;;;;;;5389136;26;20532;-70
2024/04/08 08:59:15;;;;;;;14.90;14.40;;;;;;;;;;5386771;26;20560;-69
2024/04/08 09:01:45;;;;;;;14.80;14.30;;;;;;;;;;5378358;26;20498;-69
2024/04/08 09:04:14;;;;;;;14.70;14.20;;;;;;;;;;5389188;26;20556;-70
2024/04/08 09:06:53;;;;;;;15.30;14.73;;;;;;;;;;5388407;26;21412;-70
2024/04/08 09:09:19;;;;;;;14.80;14.30;;;;;;;;;;5383691;26;20895;-69
2024/04/08 09:11:52;;;;;;;14.80;14.30;;;;;;;;;;5389936;26;20525;-69
2024/04/08 09:14:19;;;;;;;14.80;14.30;;;;;;;;;;5394433;26;20492;-69
2024/04/08 09:16:49;;;;;;;14.70;14.20;;;;;;;;;;5390439;26;20852;-69
2024/04/08 09:19:15;;;;;;;15.03;14.53;;;;;;;;;;5384232;26;20555;-69
2024/04/08 09:21:45;;;;;;;15.10;14.60;;;;;;;;;;5390337;26;20481;-69
2024/04/08 09:24:11;;;;;;;15.67;15.07;;;;;;;;;;5391303;26;20566;-71
2024/04/08 09:26:42;;;;;;;15.10;14.60;;;;;;;;;;5390813;26;20466;-68
2024/04/08 09:29:11;;;;;;;14.90;14.40;;;;;;;;;;5382619;26;20540;-69
2024/04/08 09:31:39;;;;;;;15.37;14.87;;;;;;;;;;5390973;26;20849;-70
2024/04/08 09:34:06;;;;;;;15.50;14.90;;;;;;;;;;5388642;26;20637;-69
2024/04/08 09:36:35;;;;;;;15.63;15.03;;;;;;;;;;5387017;26;20484;-71
2024/04/08 09:39:03;;;;;;;16.23;15.63;;;;;;;;;;5389215;26;20608;-71
2024/04/08 09:41:33;;;;;;;15.10;14.60;;;;;;;;;;5380610;26;20475;-69
2024/04/08 09:44:02;;;;;;;15.53;15.00;;;;;;;;;;5391721;26;20481;-70
2024/04/08 09:46:34;;;;;;;15.90;15.30;;;;;;;;;;5391464;26;20480;-69
2024/04/08 09:49:00;;;;;;;15.60;15.03;;;;;;;;;;5391383;26;20472;-69
2024/04/08 09:51:30;;;;;;;15.30;14.80;;;;;;;;;;5381475;26;20478;-70
2024/04/08 09:53:56;;;;;;;15.00;14.50;;;;;;;;;;5385695;26;20526;-70
2024/04/08 09:56:30;;;;;;;15.20;14.70;;;;;;;;;;5388026;26;20575;-69
2024/04/08 09:59:03;;;;;;;15.30;14.80;;;;;;;;;;5391502;26;21080;-69
2024/04/08 10:01:35;;;;;;;16.03;15.43;;;;;;;;;;5388867;26;20480;-71
2024/04/08 10:04:03;;;;;;;15.50;15.00;;;;;;;;;;5390114;26;21184;-71
2024/04/08 10:06:32;;;;;;;15.43;14.93;;;;;;;;;;5386674;26;20831;-69
2024/04/08 10:08:59;;;;;;;15.00;14.50;;;;;;;;;;5385313;26;20542;-69
2024/04/08 10:11:28;;;;;;;15.40;14.90;;;;;;;;;;5385325;26;21078;-69
2024/04/08 10:13:59;;;;;;;15.00;14.50;;;;;;;;;;5385225;26;20932;-69
2024/04/08 10:16:25;;;;;;;15.33;14.83;;;;;;;;;;5389592;26;20593;-70
2024/04/08 10:18:57;;;;;;;15.10;14.60;;;;;;;;;;5385753;26;20545;-69
2024/04/08 10:21:26;;;;;;;15.13;14.63;;;;;;;;;;5382509;26;20529;-69
2024/04/08 10:23:55;;;;;;;14.90;14.40;;;;;;;;;;5387398;26;20597;-69
2024/04/08 10:26:23;;;;;;;15.40;14.90;;;;;;;;;;5385174;26;20513;-69
2024/04/08 10:28:53;;;;;;;14.90;14.40;;;;;;;;;;5388768;26;20488;-70
2024/04/08 10:31:21;;;;;;;15.87;15.30;;;;;;;;;;5382043;26;20474;-69
2024/04/08 10:33:51;;;;;;;15.77;15.23;;;;;;;;;;5388068;26;20581;-69
2024/04/08 10:36:20;;;;;;;15.30;14.80;;;;;;;;;;5387115;26;20910;-69
2024/04/08 10:38:49;;;;;;;14.83;14.33;;;;;;;;;;5389882;26;20569;-70
2024/04/08 10:41:15;;;;;;;15.70;15.20;;;;;;;;;;5393072;26;20809;-69
2024/04/08 10:43:45;;;;;;;15.30;14.80;;;;;;;;;;5393987;26;20535;-71
2024/04/08 10:46:14;;;;;;;15.77;15.27;;;;;;;;;;5385365;26;20541;-70
2024/04/08 10:48:44;;;;;;;15.60;15.10;;;;;;;;;;5387789;26;20477;-71
2024/04/08 10:51:12;;;;;;;15.73;15.23;;;;;;;;;;5395081;26;20597;-70
2024/04/08 10:53:45;;;;;;;16.07;15.47;;;;;;;;;;5389319;26;20526;-72
2024/04/08 10:56:11;;;;;;;15.40;14.90;;;;;;;;;;5390404;26;20489;-70
2024/04/08 10:58:40;;;;;;;15.57;15.07;;;;;;;;;;5389853;26;20817;-70
2024/04/08 11:01:08;;;;;;;15.33;14.83;;;;;;;;;;5389771;26;20561;-70
2024/04/08 11:03:37;;;;;;;15.00;14.50;;;;;;;;;;5389144;26;20476;-70
2024/04/08 11:06:04;;;;;;;15.50;15.00;;;;;;;;;;5390118;26;20554;-70
2024/04/08 11:08:33;;;;;;;15.83;15.33;;;;;;;;;;5392315;26;21008;-70
2024/04/08 11:11:03;;;;;;;16.40;15.80;;;;;;;;;;5389487;26;20553;-72
2024/04/08 11:13:32;;;;;;;16.90;16.30;;;;;;;;;;5392813;26;20486;-72
2024/04/08 11:15:58;;;;;;;15.30;14.80;;;;;;;;;;5386548;26;20548;-72
2024/04/08 11:18:28;;;;;;;16.43;15.83;;;;;;;;;;5379816;26;20489;-70
2024/04/08 11:20:54;;;;;;;15.97;15.37;;;;;;;;;;5385471;26;21302;-71
2024/04/08 11:23:23;;;;;;;15.30;14.80;;;;;;;;;;5391137;26;20531;-69
2024/04/08 11:25:50;;;;;;;15.93;15.43;;;;;;;;;;5390909;26;21074;-71
2024/04/08 11:28:26;;;;;;;16.03;15.43;;;;;;;;;;5387787;26;20487;-71
2024/04/08 11:30:53;;;;;;;15.93;15.33;;;;;;;;;;5389385;26;20830;-71
2024/04/08 11:33:22;;;;;;;16.00;15.40;;;;;;;;;;5391630;26;21021;-69
2024/04/08 11:35:48;;;;;;;15.87;15.37;;;;;;;;;;5392042;26;20592;-70
2024/04/08 11:38:18;;;;;;;15.50;15.00;;;;;;;;;;5386166;26;20539;-72
2024/04/08 11:40:45;;;;;;;15.83;15.33;;;;;;;;;;5394660;26;20940;-69
2024/04/08 11:43:14;;;;;;;15.40;14.90;;;;;;;;;;5392886;26;21257;-70
2024/04/08 11:45:43;;;;;;;15.33;14.83;;;;;;;;;;5388213;26;20871;-70
2024/04/08 11:48:12;;;;;;;15.43;14.93;;;;;;;;;;5394481;26;20495;-70
2024/04/08 11:50:40;;;;;;;15.57;15.07;;;;;;;;;;5385189;26;21021;-70
2024/04/08 11:53:10;;;;;;;16.17;15.57;;;;;;;;;;5388836;26;20478;-70
2024/04/08 11:55:38;;;;;;;15.80;15.30;;;;;;;;;;5389819;26;20483;-70
2024/04/08 11:58:07;;;;;;;16.03;15.43;;;;;;;;;;5390335;26;20588;-72
2024/04/08 12:00:33;;;;;;;15.53;15.03;;;;;;;;;;5387565;26;20491;-71
2024/04/08 12:03:05;;;;;;;15.87;15.37;;;;;;;;;;5386288;26;21184;-69
2024/04/08 12:05:32;;;;;;;16.00;15.40;;;;;;;;;;5390554;26;20544;-71
2024/04/08 12:08:02;;;;;;;15.50;15.00;;;;;;;;;;5392377;26;20530;-71
2024/04/08 12:10:29;;;;;;;15.30;14.80;;;;;;;;;;5390058;26;20483;-69
2024/04/08 12:12:58;;;;;;;15.03;14.53;;;;;;;;;;5389862;26;21022;-70
2024/04/08 12:15:24;;;;;;;15.30;14.80;;;;;;;;;;5389135;26;20547;-71
2024/04/08 12:17:53;;;;;;;15.20;14.70;;;;;;;;;;5386639;26;20527;-72
2024/04/08 12:20:23;;;;;;;15.20;14.70;;;;;;;;;;5321175;26;20507;-69
2024/04/08 12:22:54;;;;;;;15.30;14.80;;;;;;;;;;5322852;26;20592;-71
2024/04/08 12:25:20;;;;;;;15.40;14.90;;;;;;;;;;5319127;26;20476;-71
2024/04/08 12:27:49;;;;;;;15.73;15.20;;;;;;;;;;5322443;26;20481;-69
2024/04/08 12:30:15;;;;;;;15.20;14.70;;;;;;;;;;5315832;26;21079;-69
2024/04/08 12:32:45;;;;;;;15.43;14.93;;;;;;;;;;5323521;26;20483;-69
2024/04/08 12:35:12;;;;;;;15.53;15.00;;;;;;;;;;5315452;26;20539;-69
2024/04/08 12:37:44;;;;;;;14.97;14.47;;;;;;;;;;5316150;26;20825;-70
2024/04/08 12:40:10;;;;;;;14.90;14.40;;;;;;;;;;5316371;26;20475;-69
2024/04/08 12:42:39;;;;;;;14.70;14.20;;;;;;;;;;5314530;26;20484;-69
2024/04/08 12:45:07;;;;;;;14.90;14.40;;;;;;;;;;5317314;26;20490;-70
2024/04/08 12:47:38;;;;;;;14.97;14.47;;;;;;;;;;5316544;26;20549;-69
2024/04/08 12:50:04;;;;;;;14.90;14.40;;;;;;;;;;5313841;26;20487;-71
2024/04/08 12:52:34;;;;;;;15.23;14.73;;;;;;;;;;5319354;26;20471;-71
2024/04/08 12:55:03;;;;;;;15.50;14.90;;;;;;;;;;5317869;26;20538;-69
2024/04/08 12:57:33;;;;;;;14.80;14.30;;;;;;;;;;5320826;26;20564;-69
2024/04/08 12:59:59;;;;;;;14.73;14.23;;;;;;;;;;5318284;26;21083;-69
2024/04/08 13:02:29;;;;;;;14.47;13.97;;;;;;;;;;5314635;26;20483;-70
2024/04/08 13:04:55;;;;;;;14.50;14.00;;;;;;;;;;5317337;26;20541;-69
2024/04/08 13:07:24;;;;;;;14.63;14.13;;;;;;;;;;5316242;26;20871;-69
2024/04/08 13:09:51;;;;;;;14.37;13.90;;;;;;;;;;5319426;26;21085;-69
2024/04/08 13:12:23;;;;;;;13.90;13.50;;;;;;;;;;5322066;26;20552;-70
2024/04/08 13:14:49;;;;;;;13.90;13.50;;;;;;;;;;5318962;26;20484;-71
2024/04/08 13:17:19;;;;;;;14.20;13.70;;;;;;;;;;5314018;26;20830;-71
2024/04/08 13:19:46;;;;;;;14.70;14.20;;;;;;;;;;5373816;26;20479;-70
2024/04/08 13:22:15;;;;;;;14.90;14.40;;;;;;;;;;5394809;26;20462;-71
2024/04/08 13:24:41;;;;;;;13.97;13.57;;;;;;;;;;5389090;26;20565;-71
2024/04/08 13:27:10;;;;;;;14.43;13.93;;;;;;;;;;5392305;26;20489;-69
2024/04/08 13:29:40;;;;;;;14.30;13.80;;;;;;;;;;5386725;26;21109;-71
2024/04/08 13:32:10;;;;;;;14.97;14.47;;;;;;;;;;5391748;26;20484;-68
2024/04/08 13:34:37;;;;;;;14.90;14.40;;;;;;;;;;5388718;26;20482;-68
2024/04/08 13:37:06;;;;;;;14.60;14.10;;;;;;;;;;5390970;26;20526;-68
2024/04/08 13:39:33;;;;;;;14.47;13.97;;;;;;;;;;5383066;26;21122;-67
2024/04/08 13:42:02;;;;;;;14.70;14.20;;;;;;;;;;5389853;26;21037;-67
2024/04/08 13:44:29;;;;;;;14.60;14.10;;;;;;;;;;5388781;26;20482;-69
2024/04/08 13:47:01;;;;;;;15.20;14.70;;;;;;;;;;5383899;26;21167;-70
2024/04/08 13:49:28;;;;;;;16.80;16.10;;;;;;;;;;5393640;26;20484;-69
2024/04/08 13:51:57;;;;;;;17.20;16.50;;;;;;;;;;5386148;26;20472;-68
2024/04/08 13:54:26;;;;;;;18.43;17.63;;;;;;;;;;5386771;26;20896;-71
2024/04/08 13:56:55;;;;;;;19.30;18.30;;;;;;;;;;5382616;26;20961;-69
2024/04/08 13:59:21;;;;;;;19.67;18.67;;;;;;;;;;5390254;26;20476;-69
2024/04/08 14:01:50;;;;;;;18.80;17.90;;;;;;;;;;5385483;26;20479;-70
2024/04/08 14:04:20;;;;;;;17.70;16.90;;;;;;;;;;5388047;26;20588;-69
2024/04/08 14:06:49;;;;;;;14.90;14.40;;;;;;;;;;5379797;26;20551;-70
2024/04/08 14:09:16;;;;;;;13.70;13.30;;;;;;;;;;5390775;26;20634;-69
2024/04/08 14:11:47;;;;;;;13.57;13.17;;;;;;;;;;5387642;26;20538;-70
2024/04/08 14:14:13;;;;;;;13.40;13.00;;;;;;;;;;5386820;26;22633;-71
2024/04/08 14:16:44;;;;;;;13.47;13.07;;;;;;;;;;5380798;26;20963;-69
2024/04/08 14:19:11;;;;;;;13.93;13.53;;;;;;;;;;5388466;26;20482;-69
2024/04/08 14:21:43;;;;;;;14.40;13.90;;;;;;;;;;5377285;26;20490;-70
2024/04/08 14:24:09;;;;;;;14.57;14.07;;;;;;;;;;5379545;26;20980;-69
2024/04/08 14:26:38;;;;;;;14.30;13.80;;;;;;;;;;5387176;26;20982;-70